sensor_id;sensor_type;location;lat;lon;timestamp;P1;durP1;ratioP1;P2;durP2;ratioP2
59294;SDS011;45067;44.654;20.200;2023-02-28T00:00:23;34.88;;;22.92;;
59294;SDS011;45067;44.654;20.200;2023-02-28T00:02:50;39.08;;;21.92;;
59294;SDS011;45067;44.654;20.200;2023-02-28T00:05:17;34.40;;;21.27;;
59294;SDS011;45067;44.654;20.200;2023-02-28T00:07:43;30.50;;;19.20;;
59294;SDS011;45067;44.654;20.200;2023-02-28T00:10:10;30.65;;;20.10;;
59294;SDS011;45067;44.654;20.200;2023-02-28T00:12:37;29.77;;;18.75;;
59294;SDS011;45067;44.654;20.200;2023-02-28T00:15:07;31.77;;;18.95;;
59294;SDS011;45067;44.654;20.200;2023-02-28T00:17:33;29.77;;;18.95;;
59294;SDS011;45067;44.654;20.200;2023-02-28T00:19:59;29.92;;;19.08;;
59294;SDS011;45067;44.654;20.200;2023-02-28T00:22:37;30.00;;;18.95;;
59294;SDS011;45067;44.654;20.200;2023-02-28T00:25:03;27.40;;;18.33;;
59294;SDS011;45067;44.654;20.200;2023-02-28T00:27:29;28.08;;;17.27;;
59294;SDS011;45067;44.654;20.200;2023-02-28T00:29:56;29.35;;;17.13;;
59294;SDS011;45067;44.654;20.200;2023-02-28T00:32:22;28.40;;;17.50;;
59294;SDS011;45067;44.654;20.200;2023-02-28T00:34:48;29.55;;;17.00;;
59294;SDS011;45067;44.654;20.200;2023-02-28T00:37:14;25.83;;;16.63;;
59294;SDS011;45067;44.654;20.200;2023-02-28T00:39:40;26.70;;;16.30;;
59294;SDS011;45067;44.654;20.200;2023-02-28T00:42:06;25.00;;;15.93;;
59294;SDS011;45067;44.654;20.200;2023-02-28T00:44:32;26.85;;;16.02;;
59294;SDS011;45067;44.654;20.200;2023-02-28T00:46:59;24.50;;;16.60;;
59294;SDS011;45067;44.654;20.200;2023-02-28T00:49:25;25.52;;;16.58;;
59294;SDS011;45067;44.654;20.200;2023-02-28T00:51:51;24.42;;;15.63;;
59294;SDS011;45067;44.654;20.200;2023-02-28T00:54:18;24.63;;;16.17;;
59294;SDS011;45067;44.654;20.200;2023-02-28T00:56:44;24.23;;;15.55;;
59294;SDS011;45067;44.654;20.200;2023-02-28T00:59:11;24.35;;;15.80;;
59294;SDS011;45067;44.654;20.200;2023-02-28T01:01:37;24.73;;;15.18;;
59294;SDS011;45067;44.654;20.200;2023-02-28T01:04:03;23.92;;;15.57;;
59294;SDS011;45067;44.654;20.200;2023-02-28T01:06:30;23.05;;;15.30;;
59294;SDS011;45067;44.654;20.200;2023-02-28T01:08:56;24.10;;;15.75;;
59294;SDS011;45067;44.654;20.200;2023-02-28T01:11:22;24.08;;;15.98;;
59294;SDS011;45067;44.654;20.200;2023-02-28T01:13:48;24.35;;;15.27;;
59294;SDS011;45067;44.654;20.200;2023-02-28T01:16:14;25.20;;;15.48;;
59294;SDS011;45067;44.654;20.200;2023-02-28T01:18:41;24.55;;;15.32;;
59294;SDS011;45067;44.654;20.200;2023-02-28T01:21:08;22.88;;;14.85;;
59294;SDS011;45067;44.654;20.200;2023-02-28T01:23:35;23.77;;;15.30;;
59294;SDS011;45067;44.654;20.200;2023-02-28T01:26:09;25.15;;;16.00;;
59294;SDS011;45067;44.654;20.200;2023-02-28T01:28:36;25.88;;;16.63;;
59294;SDS011;45067;44.654;20.200;2023-02-28T01:31:02;26.85;;;17.15;;
59294;SDS011;45067;44.654;20.200;2023-02-28T01:33:28;23.98;;;15.50;;
59294;SDS011;45067;44.654;20.200;2023-02-28T01:35:58;25.08;;;15.82;;
59294;SDS011;45067;44.654;20.200;2023-02-28T01:38:24;25.77;;;15.57;;
59294;SDS011;45067;44.654;20.200;2023-02-28T01:40:50;24.25;;;15.85;;
59294;SDS011;45067;44.654;20.200;2023-02-28T01:43:21;23.40;;;14.63;;
59294;SDS011;45067;44.654;20.200;2023-02-28T01:45:47;26.63;;;16.75;;
59294;SDS011;45067;44.654;20.200;2023-02-28T01:48:13;23.83;;;15.10;;
59294;SDS011;45067;44.654;20.200;2023-02-28T01:50:41;23.30;;;15.02;;
59294;SDS011;45067;44.654;20.200;2023-02-28T01:53:09;21.52;;;14.38;;
59294;SDS011;45067;44.654;20.200;2023-02-28T01:55:36;23.20;;;14.52;;
59294;SDS011;45067;44.654;20.200;2023-02-28T01:58:04;24.50;;;14.82;;
59294;SDS011;45067;44.654;20.200;2023-02-28T02:00:31;24.13;;;15.00;;
59294;SDS011;45067;44.654;20.200;2023-02-28T02:02:58;24.23;;;14.20;;
59294;SDS011;45067;44.654;20.200;2023-02-28T02:05:26;27.48;;;16.00;;
59294;SDS011;45067;44.654;20.200;2023-02-28T02:07:56;22.77;;;14.57;;
59294;SDS011;45067;44.654;20.200;2023-02-28T02:15:53;24.83;;;15.52;;
59294;SDS011;45067;44.654;20.200;2023-02-28T02:21:26;21.85;;;14.40;;
59294;SDS011;45067;44.654;20.200;2023-02-28T02:23:45;23.30;;;14.13;;
59294;SDS011;45067;44.654;20.200;2023-02-28T02:28:50;24.08;;;14.77;;
59294;SDS011;45067;44.654;20.200;2023-02-28T02:39:06;31.50;;;17.95;;
59294;SDS011;45067;44.654;20.200;2023-02-28T02:41:54;25.50;;;15.52;;
59294;SDS011;45067;44.654;20.200;2023-02-28T02:44:25;26.00;;;16.20;;
59294;SDS011;45067;44.654;20.200;2023-02-28T02:46:54;27.83;;;15.85;;
59294;SDS011;45067;44.654;20.200;2023-02-28T02:49:22;24.80;;;15.30;;
59294;SDS011;45067;44.654;20.200;2023-02-28T02:51:49;27.42;;;16.27;;
59294;SDS011;45067;44.654;20.200;2023-02-28T02:54:19;26.52;;;15.10;;
59294;SDS011;45067;44.654;20.200;2023-02-28T02:56:47;24.98;;;16.08;;
59294;SDS011;45067;44.654;20.200;2023-02-28T02:59:16;25.77;;;15.60;;
59294;SDS011;45067;44.654;20.200;2023-02-28T03:01:48;25.08;;;15.02;;
59294;SDS011;45067;44.654;20.200;2023-02-28T03:04:16;25.05;;;15.35;;
59294;SDS011;45067;44.654;20.200;2023-02-28T03:06:44;28.95;;;17.00;;
59294;SDS011;45067;44.654;20.200;2023-02-28T03:09:10;24.45;;;15.48;;
59294;SDS011;45067;44.654;20.200;2023-02-28T03:11:37;27.02;;;15.73;;
59294;SDS011;45067;44.654;20.200;2023-02-28T03:16:58;30.02;;;17.55;;
59294;SDS011;45067;44.654;20.200;2023-02-28T03:24:43;35.65;;;19.45;;
59294;SDS011;45067;44.654;20.200;2023-02-28T03:27:17;36.05;;;21.02;;
59294;SDS011;45067;44.654;20.200;2023-02-28T03:29:50;31.65;;;19.67;;
59294;SDS011;45067;44.654;20.200;2023-02-28T03:32:22;26.23;;;16.08;;
59294;SDS011;45067;44.654;20.200;2023-02-28T03:34:52;28.85;;;16.42;;
59294;SDS011;45067;44.654;20.200;2023-02-28T03:37:22;28.73;;;17.02;;
59294;SDS011;45067;44.654;20.200;2023-02-28T03:39:59;27.52;;;15.75;;
59294;SDS011;45067;44.654;20.200;2023-02-28T03:42:27;26.77;;;15.77;;
59294;SDS011;45067;44.654;20.200;2023-02-28T03:44:56;36.95;;;19.75;;
59294;SDS011;45067;44.654;20.200;2023-02-28T03:47:36;33.90;;;19.25;;
59294;SDS011;45067;44.654;20.200;2023-02-28T03:52:34;34.72;;;19.63;;
59294;SDS011;45067;44.654;20.200;2023-02-28T03:55:02;31.75;;;18.95;;
59294;SDS011;45067;44.654;20.200;2023-02-28T03:57:37;30.75;;;18.15;;
59294;SDS011;45067;44.654;20.200;2023-02-28T04:02:31;31.02;;;17.88;;
59294;SDS011;45067;44.654;20.200;2023-02-28T04:04:59;29.20;;;16.85;;
59294;SDS011;45067;44.654;20.200;2023-02-28T04:07:28;27.98;;;16.58;;
59294;SDS011;45067;44.654;20.200;2023-02-28T04:09:54;31.10;;;17.77;;
59294;SDS011;45067;44.654;20.200;2023-02-28T04:12:20;28.20;;;15.73;;
59294;SDS011;45067;44.654;20.200;2023-02-28T04:14:48;28.23;;;16.45;;
59294;SDS011;45067;44.654;20.200;2023-02-28T04:17:14;26.45;;;15.50;;
59294;SDS011;45067;44.654;20.200;2023-02-28T04:19:40;26.85;;;15.98;;
59294;SDS011;45067;44.654;20.200;2023-02-28T04:22:07;26.52;;;15.73;;
59294;SDS011;45067;44.654;20.200;2023-02-28T04:24:33;27.70;;;15.70;;
59294;SDS011;45067;44.654;20.200;2023-02-28T04:26:59;26.73;;;15.88;;
59294;SDS011;45067;44.654;20.200;2023-02-28T04:29:29;28.67;;;16.35;;
59294;SDS011;45067;44.654;20.200;2023-02-28T04:31:57;28.85;;;16.77;;
59294;SDS011;45067;44.654;20.200;2023-02-28T04:34:24;28.83;;;17.42;;
59294;SDS011;45067;44.654;20.200;2023-02-28T04:36:50;27.33;;;16.55;;
59294;SDS011;45067;44.654;20.200;2023-02-28T04:39:18;28.48;;;16.67;;
59294;SDS011;45067;44.654;20.200;2023-02-28T04:41:45;27.98;;;16.13;;
59294;SDS011;45067;44.654;20.200;2023-02-28T04:44:11;27.85;;;16.13;;
59294;SDS011;45067;44.654;20.200;2023-02-28T04:46:37;28.42;;;16.00;;
59294;SDS011;45067;44.654;20.200;2023-02-28T04:49:03;26.17;;;15.73;;
59294;SDS011;45067;44.654;20.200;2023-02-28T04:51:30;30.98;;;16.77;;
59294;SDS011;45067;44.654;20.200;2023-02-28T04:53:56;27.60;;;16.33;;
59294;SDS011;45067;44.654;20.200;2023-02-28T04:56:22;30.98;;;16.95;;
59294;SDS011;45067;44.654;20.200;2023-02-28T04:58:48;28.83;;;16.73;;
59294;SDS011;45067;44.654;20.200;2023-02-28T05:03:47;27.55;;;15.48;;
59294;SDS011;45067;44.654;20.200;2023-02-28T05:06:14;26.88;;;15.30;;
59294;SDS011;45067;44.654;20.200;2023-02-28T05:08:40;26.45;;;15.07;;
59294;SDS011;45067;44.654;20.200;2023-02-28T05:11:08;31.08;;;17.92;;
59294;SDS011;45067;44.654;20.200;2023-02-28T05:13:38;27.15;;;16.25;;
59294;SDS011;45067;44.654;20.200;2023-02-28T05:16:04;28.23;;;15.43;;
59294;SDS011;45067;44.654;20.200;2023-02-28T05:18:30;31.45;;;17.17;;
59294;SDS011;45067;44.654;20.200;2023-02-28T05:20:56;26.73;;;15.13;;
59294;SDS011;45067;44.654;20.200;2023-02-28T05:23:22;30.67;;;17.20;;
59294;SDS011;45067;44.654;20.200;2023-02-28T05:25:48;27.15;;;15.77;;
59294;SDS011;45067;44.654;20.200;2023-02-28T05:28:14;33.03;;;18.58;;
59294;SDS011;45067;44.654;20.200;2023-02-28T05:30:40;30.63;;;17.08;;
59294;SDS011;45067;44.654;20.200;2023-02-28T05:33:09;30.35;;;17.00;;
59294;SDS011;45067;44.654;20.200;2023-02-28T05:35:37;34.42;;;19.88;;
59294;SDS011;45067;44.654;20.200;2023-02-28T05:38:04;30.40;;;17.23;;
59294;SDS011;45067;44.654;20.200;2023-02-28T05:40:30;32.42;;;18.38;;
59294;SDS011;45067;44.654;20.200;2023-02-28T05:42:56;33.78;;;19.65;;
59294;SDS011;45067;44.654;20.200;2023-02-28T05:45:22;32.65;;;19.00;;
59294;SDS011;45067;44.654;20.200;2023-02-28T05:47:48;30.48;;;17.80;;
59294;SDS011;45067;44.654;20.200;2023-02-28T05:50:14;32.40;;;18.67;;
59294;SDS011;45067;44.654;20.200;2023-02-28T05:52:40;36.92;;;20.60;;
59294;SDS011;45067;44.654;20.200;2023-02-28T05:55:06;35.90;;;19.00;;
59294;SDS011;45067;44.654;20.200;2023-02-28T05:57:33;32.58;;;18.48;;
59294;SDS011;45067;44.654;20.200;2023-02-28T05:59:59;35.28;;;19.88;;
59294;SDS011;45067;44.654;20.200;2023-02-28T06:02:25;37.65;;;20.65;;
59294;SDS011;45067;44.654;20.200;2023-02-28T06:04:51;36.97;;;20.17;;
59294;SDS011;45067;44.654;20.200;2023-02-28T06:07:17;38.33;;;20.90;;
59294;SDS011;45067;44.654;20.200;2023-02-28T06:09:43;36.67;;;20.40;;
59294;SDS011;45067;44.654;20.200;2023-02-28T06:12:09;34.85;;;20.10;;
59294;SDS011;45067;44.654;20.200;2023-02-28T06:14:35;33.88;;;19.00;;
59294;SDS011;45067;44.654;20.200;2023-02-28T06:17:02;35.60;;;19.73;;
59294;SDS011;45067;44.654;20.200;2023-02-28T06:19:28;31.38;;;17.95;;
59294;SDS011;45067;44.654;20.200;2023-02-28T06:21:55;34.20;;;18.63;;
59294;SDS011;45067;44.654;20.200;2023-02-28T06:24:23;33.88;;;19.98;;
59294;SDS011;45067;44.654;20.200;2023-02-28T06:26:49;40.63;;;21.15;;
59294;SDS011;45067;44.654;20.200;2023-02-28T06:29:15;37.95;;;20.30;;
59294;SDS011;45067;44.654;20.200;2023-02-28T06:31:44;35.00;;;20.35;;
59294;SDS011;45067;44.654;20.200;2023-02-28T06:34:11;37.97;;;19.73;;
59294;SDS011;45067;44.654;20.200;2023-02-28T06:36:38;38.20;;;20.55;;
59294;SDS011;45067;44.654;20.200;2023-02-28T06:39:04;35.55;;;19.20;;
59294;SDS011;45067;44.654;20.200;2023-02-28T06:41:30;37.45;;;19.45;;
59294;SDS011;45067;44.654;20.200;2023-02-28T06:43:56;35.28;;;20.13;;
59294;SDS011;45067;44.654;20.200;2023-02-28T06:46:22;35.63;;;20.17;;
59294;SDS011;45067;44.654;20.200;2023-02-28T06:48:49;37.42;;;19.80;;
59294;SDS011;45067;44.654;20.200;2023-02-28T06:51:16;37.70;;;20.00;;
59294;SDS011;45067;44.654;20.200;2023-02-28T06:53:43;35.53;;;19.80;;
59294;SDS011;45067;44.654;20.200;2023-02-28T06:56:10;38.65;;;21.15;;
59294;SDS011;45067;44.654;20.200;2023-02-28T06:58:36;40.20;;;22.45;;
59294;SDS011;45067;44.654;20.200;2023-02-28T07:01:03;38.17;;;21.55;;
59294;SDS011;45067;44.654;20.200;2023-02-28T07:03:30;42.03;;;22.90;;
59294;SDS011;45067;44.654;20.200;2023-02-28T07:05:56;43.90;;;22.83;;
59294;SDS011;45067;44.654;20.200;2023-02-28T07:08:25;45.92;;;23.88;;
59294;SDS011;45067;44.654;20.200;2023-02-28T07:10:55;38.22;;;21.90;;
59294;SDS011;45067;44.654;20.200;2023-02-28T07:13:21;38.27;;;21.80;;
59294;SDS011;45067;44.654;20.200;2023-02-28T07:15:58;39.47;;;22.40;;
59294;SDS011;45067;44.654;20.200;2023-02-28T07:18:24;40.63;;;22.25;;
59294;SDS011;45067;44.654;20.200;2023-02-28T07:20:51;48.45;;;23.33;;
59294;SDS011;45067;44.654;20.200;2023-02-28T07:23:17;41.33;;;21.30;;
59294;SDS011;45067;44.654;20.200;2023-02-28T07:25:43;37.47;;;21.17;;
59294;SDS011;45067;44.654;20.200;2023-02-28T07:28:10;45.55;;;25.27;;
59294;SDS011;45067;44.654;20.200;2023-02-28T07:30:36;47.03;;;26.08;;
59294;SDS011;45067;44.654;20.200;2023-02-28T07:33:02;43.45;;;24.48;;
59294;SDS011;45067;44.654;20.200;2023-02-28T07:35:29;44.10;;;24.17;;
59294;SDS011;45067;44.654;20.200;2023-02-28T07:37:55;48.28;;;26.55;;
59294;SDS011;45067;44.654;20.200;2023-02-28T07:40:22;43.00;;;23.60;;
59294;SDS011;45067;44.654;20.200;2023-02-28T07:42:48;38.72;;;21.83;;
59294;SDS011;45067;44.654;20.200;2023-02-28T07:45:14;38.78;;;22.23;;
59294;SDS011;45067;44.654;20.200;2023-02-28T07:47:41;38.22;;;22.00;;
59294;SDS011;45067;44.654;20.200;2023-02-28T07:50:08;42.58;;;23.52;;
59294;SDS011;45067;44.654;20.200;2023-02-28T07:52:35;55.55;;;32.20;;
59294;SDS011;45067;44.654;20.200;2023-02-28T07:55:01;43.80;;;26.33;;
59294;SDS011;45067;44.654;20.200;2023-02-28T07:57:27;36.08;;;21.80;;
59294;SDS011;45067;44.654;20.200;2023-02-28T07:59:53;40.70;;;23.35;;
59294;SDS011;45067;44.654;20.200;2023-02-28T08:02:19;39.42;;;23.25;;
59294;SDS011;45067;44.654;20.200;2023-02-28T08:04:45;41.95;;;22.38;;
59294;SDS011;45067;44.654;20.200;2023-02-28T08:07:13;39.90;;;23.63;;
59294;SDS011;45067;44.654;20.200;2023-02-28T08:09:39;35.90;;;21.88;;
59294;SDS011;45067;44.654;20.200;2023-02-28T08:12:06;34.55;;;20.27;;
59294;SDS011;45067;44.654;20.200;2023-02-28T08:14:32;34.40;;;21.42;;
59294;SDS011;45067;44.654;20.200;2023-02-28T08:16:58;35.20;;;20.40;;
59294;SDS011;45067;44.654;20.200;2023-02-28T08:19:24;35.10;;;20.33;;
59294;SDS011;45067;44.654;20.200;2023-02-28T08:21:50;33.33;;;21.27;;
59294;SDS011;45067;44.654;20.200;2023-02-28T08:24:16;32.38;;;19.65;;
59294;SDS011;45067;44.654;20.200;2023-02-28T08:26:42;35.47;;;21.88;;
59294;SDS011;45067;44.654;20.200;2023-02-28T08:29:09;34.47;;;20.42;;
59294;SDS011;45067;44.654;20.200;2023-02-28T08:31:35;35.83;;;21.48;;
59294;SDS011;45067;44.654;20.200;2023-02-28T08:34:05;35.88;;;21.95;;
59294;SDS011;45067;44.654;20.200;2023-02-28T08:36:31;33.20;;;19.92;;
59294;SDS011;45067;44.654;20.200;2023-02-28T08:38:57;34.45;;;19.80;;
59294;SDS011;45067;44.654;20.200;2023-02-28T08:41:24;35.63;;;20.50;;
59294;SDS011;45067;44.654;20.200;2023-02-28T08:43:51;39.33;;;20.98;;
59294;SDS011;45067;44.654;20.200;2023-02-28T08:46:17;33.83;;;20.73;;
59294;SDS011;45067;44.654;20.200;2023-02-28T08:48:43;34.45;;;20.83;;
59294;SDS011;45067;44.654;20.200;2023-02-28T08:51:10;33.58;;;21.42;;
59294;SDS011;45067;44.654;20.200;2023-02-28T08:53:37;37.67;;;22.30;;
59294;SDS011;45067;44.654;20.200;2023-02-28T08:56:13;37.35;;;21.67;;
59294;SDS011;45067;44.654;20.200;2023-02-28T08:58:41;36.35;;;21.10;;
59294;SDS011;45067;44.654;20.200;2023-02-28T09:01:08;35.30;;;20.27;;
59294;SDS011;45067;44.654;20.200;2023-02-28T09:03:34;35.10;;;21.15;;
59294;SDS011;45067;44.654;20.200;2023-02-28T09:06:00;30.50;;;19.25;;
59294;SDS011;45067;44.654;20.200;2023-02-28T09:08:28;32.13;;;18.60;;
59294;SDS011;45067;44.654;20.200;2023-02-28T09:10:55;29.27;;;18.13;;
59294;SDS011;45067;44.654;20.200;2023-02-28T09:13:22;33.10;;;19.23;;
59294;SDS011;45067;44.654;20.200;2023-02-28T09:15:48;29.60;;;18.10;;
59294;SDS011;45067;44.654;20.200;2023-02-28T09:18:15;36.58;;;20.95;;
59294;SDS011;45067;44.654;20.200;2023-02-28T09:20:41;32.25;;;18.90;;
59294;SDS011;45067;44.654;20.200;2023-02-28T09:23:08;36.55;;;20.05;;
59294;SDS011;45067;44.654;20.200;2023-02-28T09:25:35;30.67;;;18.83;;
59294;SDS011;45067;44.654;20.200;2023-02-28T09:28:01;28.70;;;17.55;;
59294;SDS011;45067;44.654;20.200;2023-02-28T09:30:27;28.17;;;17.45;;
59294;SDS011;45067;44.654;20.200;2023-02-28T09:32:54;31.15;;;19.00;;
59294;SDS011;45067;44.654;20.200;2023-02-28T09:35:23;30.25;;;18.48;;
59294;SDS011;45067;44.654;20.200;2023-02-28T09:37:51;34.22;;;19.70;;
59294;SDS011;45067;44.654;20.200;2023-02-28T09:40:18;33.42;;;20.05;;
59294;SDS011;45067;44.654;20.200;2023-02-28T09:42:48;33.30;;;20.70;;
59294;SDS011;45067;44.654;20.200;2023-02-28T09:48:21;34.38;;;20.63;;
59294;SDS011;45067;44.654;20.200;2023-02-28T09:50:49;38.03;;;22.05;;
59294;SDS011;45067;44.654;20.200;2023-02-28T09:53:21;39.33;;;24.30;;
59294;SDS011;45067;44.654;20.200;2023-02-28T09:55:57;36.95;;;22.92;;
59294;SDS011;45067;44.654;20.200;2023-02-28T10:04:05;28.15;;;17.15;;
59294;SDS011;45067;44.654;20.200;2023-02-28T10:06:38;30.65;;;19.10;;
59294;SDS011;45067;44.654;20.200;2023-02-28T10:09:40;31.50;;;20.13;;
59294;SDS011;45067;44.654;20.200;2023-02-28T10:12:02;29.90;;;19.15;;
59294;SDS011;45067;44.654;20.200;2023-02-28T10:14:29;32.23;;;20.53;;
59294;SDS011;45067;44.654;20.200;2023-02-28T10:16:59;35.90;;;21.98;;
59294;SDS011;45067;44.654;20.200;2023-02-28T10:19:30;36.10;;;22.02;;
59294;SDS011;45067;44.654;20.200;2023-02-28T10:21:59;36.15;;;21.63;;
59294;SDS011;45067;44.654;20.200;2023-02-28T10:24:35;35.38;;;22.17;;
59294;SDS011;45067;44.654;20.200;2023-02-28T10:27:15;37.40;;;23.15;;
59294;SDS011;45067;44.654;20.200;2023-02-28T10:29:43;38.45;;;22.92;;
59294;SDS011;45067;44.654;20.200;2023-02-28T10:32:09;40.70;;;23.85;;
59294;SDS011;45067;44.654;20.200;2023-02-28T10:34:36;40.97;;;23.67;;
59294;SDS011;45067;44.654;20.200;2023-02-28T10:37:02;44.30;;;26.40;;
59294;SDS011;45067;44.654;20.200;2023-02-28T10:42:02;44.30;;;24.80;;
59294;SDS011;45067;44.654;20.200;2023-02-28T10:44:28;42.70;;;25.17;;
59294;SDS011;45067;44.654;20.200;2023-02-28T10:46:54;47.22;;;26.98;;
59294;SDS011;45067;44.654;20.200;2023-02-28T10:49:27;47.00;;;27.70;;
59294;SDS011;45067;44.654;20.200;2023-02-28T10:51:57;51.83;;;28.92;;
59294;SDS011;45067;44.654;20.200;2023-02-28T10:54:32;50.13;;;29.55;;
59294;SDS011;45067;44.654;20.200;2023-02-28T10:59:41;40.55;;;23.98;;
59294;SDS011;45067;44.654;20.200;2023-02-28T11:08:16;46.53;;;26.75;;
59294;SDS011;45067;44.654;20.200;2023-02-28T11:10:44;46.75;;;27.25;;
59294;SDS011;45067;44.654;20.200;2023-02-28T11:13:17;43.45;;;26.05;;
59294;SDS011;45067;44.654;20.200;2023-02-28T11:15:51;42.78;;;23.75;;
59294;SDS011;45067;44.654;20.200;2023-02-28T11:18:23;44.85;;;25.73;;
59294;SDS011;45067;44.654;20.200;2023-02-28T11:20:50;46.28;;;26.05;;
59294;SDS011;45067;44.654;20.200;2023-02-28T11:23:17;51.08;;;27.42;;
59294;SDS011;45067;44.654;20.200;2023-02-28T11:25:49;46.15;;;27.33;;
59294;SDS011;45067;44.654;20.200;2023-02-28T11:33:40;46.72;;;27.23;;
59294;SDS011;45067;44.654;20.200;2023-02-28T11:36:10;48.13;;;27.38;;
59294;SDS011;45067;44.654;20.200;2023-02-28T11:38:36;51.92;;;29.45;;
59294;SDS011;45067;44.654;20.200;2023-02-28T11:43:58;49.53;;;28.20;;
59294;SDS011;45067;44.654;20.200;2023-02-28T11:51:35;49.40;;;26.17;;
59294;SDS011;45067;44.654;20.200;2023-02-28T11:54:14;42.22;;;24.42;;
59294;SDS011;45067;44.654;20.200;2023-02-28T11:56:47;46.78;;;26.95;;
59294;SDS011;45067;44.654;20.200;2023-02-28T12:02:02;40.95;;;21.50;;
59294;SDS011;45067;44.654;20.200;2023-02-28T12:19:53;56.78;;;31.88;;
59294;SDS011;45067;44.654;20.200;2023-02-28T12:27:41;51.30;;;28.77;;
59294;SDS011;45067;44.654;20.200;2023-02-28T12:32:51;46.58;;;27.90;;
59294;SDS011;45067;44.654;20.200;2023-02-28T12:35:25;50.22;;;29.30;;
59294;SDS011;45067;44.654;20.200;2023-02-28T12:40:26;41.92;;;25.92;;
59294;SDS011;45067;44.654;20.200;2023-02-28T12:42:58;37.85;;;25.13;;
59294;SDS011;45067;44.654;20.200;2023-02-28T12:45:26;45.75;;;27.50;;
59294;SDS011;45067;44.654;20.200;2023-02-28T12:48:04;51.58;;;32.17;;
59294;SDS011;45067;44.654;20.200;2023-02-28T12:50:32;53.88;;;32.28;;
59294;SDS011;45067;44.654;20.200;2023-02-28T13:03:51;45.20;;;27.65;;
59294;SDS011;45067;44.654;20.200;2023-02-28T13:11:33;36.90;;;21.65;;
59294;SDS011;45067;44.654;20.200;2023-02-28T13:14:01;33.65;;;19.15;;
59294;SDS011;45067;44.654;20.200;2023-02-28T13:16:27;29.33;;;18.67;;
59294;SDS011;45067;44.654;20.200;2023-02-28T13:19:07;35.03;;;20.05;;
59294;SDS011;45067;44.654;20.200;2023-02-28T13:21:41;33.42;;;19.42;;
59294;SDS011;45067;44.654;20.200;2023-02-28T13:24:08;31.27;;;18.85;;
59294;SDS011;45067;44.654;20.200;2023-02-28T13:47:41;34.80;;;20.80;;
59294;SDS011;45067;44.654;20.200;2023-02-28T13:52:45;36.55;;;20.00;;
59294;SDS011;45067;44.654;20.200;2023-02-28T14:05:25;36.13;;;20.70;;
59294;SDS011;45067;44.654;20.200;2023-02-28T14:07:56;35.30;;;20.27;;
59294;SDS011;45067;44.654;20.200;2023-02-28T14:10:24;40.17;;;21.92;;
59294;SDS011;45067;44.654;20.200;2023-02-28T14:13:00;34.03;;;21.17;;
59294;SDS011;45067;44.654;20.200;2023-02-28T14:17:54;37.05;;;21.48;;
59294;SDS011;45067;44.654;20.200;2023-02-28T14:20:21;37.85;;;22.50;;
59294;SDS011;45067;44.654;20.200;2023-02-28T14:38:30;38.20;;;23.35;;
59294;SDS011;45067;44.654;20.200;2023-02-28T14:40:58;37.92;;;22.42;;
59294;SDS011;45067;44.654;20.200;2023-02-28T14:43:26;36.45;;;21.85;;
59294;SDS011;45067;44.654;20.200;2023-02-28T14:45:59;37.97;;;23.70;;
59294;SDS011;45067;44.654;20.200;2023-02-28T14:48:26;39.58;;;24.67;;
59294;SDS011;45067;44.654;20.200;2023-02-28T14:50:56;49.50;;;27.23;;
59294;SDS011;45067;44.654;20.200;2023-02-28T14:55:48;40.63;;;24.67;;
59294;SDS011;45067;44.654;20.200;2023-02-28T14:58:28;44.97;;;24.92;;
59294;SDS011;45067;44.654;20.200;2023-02-28T15:00:55;40.83;;;23.50;;
59294;SDS011;45067;44.654;20.200;2023-02-28T15:03:35;39.85;;;23.10;;
59294;SDS011;45067;44.654;20.200;2023-02-28T15:06:06;39.00;;;23.35;;
59294;SDS011;45067;44.654;20.200;2023-02-28T15:08:32;39.22;;;23.60;;
59294;SDS011;45067;44.654;20.200;2023-02-28T15:11:34;41.75;;;23.92;;
59294;SDS011;45067;44.654;20.200;2023-02-28T15:13:53;44.05;;;23.85;;
59294;SDS011;45067;44.654;20.200;2023-02-28T15:16:26;42.97;;;24.00;;
59294;SDS011;45067;44.654;20.200;2023-02-28T15:18:56;43.92;;;25.80;;
59294;SDS011;45067;44.654;20.200;2023-02-28T15:21:25;37.30;;;23.70;;
59294;SDS011;45067;44.654;20.200;2023-02-28T15:23:53;38.30;;;23.48;;
59294;SDS011;45067;44.654;20.200;2023-02-28T15:26:20;38.33;;;24.60;;
59294;SDS011;45067;44.654;20.200;2023-02-28T15:28:48;37.97;;;23.90;;
59294;SDS011;45067;44.654;20.200;2023-02-28T15:31:33;38.38;;;22.17;;
59294;SDS011;45067;44.654;20.200;2023-02-28T15:34:04;48.88;;;29.67;;
59294;SDS011;45067;44.654;20.200;2023-02-28T15:36:31;59.72;;;35.88;;
59294;SDS011;45067;44.654;20.200;2023-02-28T15:38:58;48.33;;;28.98;;
59294;SDS011;45067;44.654;20.200;2023-02-28T15:41:28;34.88;;;20.60;;
59294;SDS011;45067;44.654;20.200;2023-02-28T15:44:14;33.10;;;20.45;;
59294;SDS011;45067;44.654;20.200;2023-02-28T15:46:45;33.10;;;18.40;;
59294;SDS011;45067;44.654;20.200;2023-02-28T15:49:19;30.75;;;19.20;;
59294;SDS011;45067;44.654;20.200;2023-02-28T15:51:46;37.08;;;20.55;;
59294;SDS011;45067;44.654;20.200;2023-02-28T15:54:12;29.65;;;18.33;;
59294;SDS011;45067;44.654;20.200;2023-02-28T15:56:47;33.08;;;19.48;;
59294;SDS011;45067;44.654;20.200;2023-02-28T15:59:16;31.00;;;19.55;;
59294;SDS011;45067;44.654;20.200;2023-02-28T16:01:43;30.40;;;18.42;;
59294;SDS011;45067;44.654;20.200;2023-02-28T16:06:45;37.15;;;19.95;;
59294;SDS011;45067;44.654;20.200;2023-02-28T16:09:14;36.15;;;20.92;;
59294;SDS011;45067;44.654;20.200;2023-02-28T16:11:42;39.22;;;21.80;;
59294;SDS011;45067;44.654;20.200;2023-02-28T16:14:12;38.17;;;21.50;;
59294;SDS011;45067;44.654;20.200;2023-02-28T16:16:41;33.55;;;19.02;;
59294;SDS011;45067;44.654;20.200;2023-02-28T16:19:08;36.25;;;21.50;;
59294;SDS011;45067;44.654;20.200;2023-02-28T16:21:34;32.90;;;20.63;;
59294;SDS011;45067;44.654;20.200;2023-02-28T16:24:00;34.15;;;19.95;;
59294;SDS011;45067;44.654;20.200;2023-02-28T16:26:26;33.42;;;19.63;;
59294;SDS011;45067;44.654;20.200;2023-02-28T16:28:53;30.85;;;19.65;;
59294;SDS011;45067;44.654;20.200;2023-02-28T16:31:19;32.92;;;19.73;;
59294;SDS011;45067;44.654;20.200;2023-02-28T16:33:46;34.65;;;21.20;;
59294;SDS011;45067;44.654;20.200;2023-02-28T16:36:20;36.30;;;21.23;;
59294;SDS011;45067;44.654;20.200;2023-02-28T16:38:48;36.33;;;21.60;;
59294;SDS011;45067;44.654;20.200;2023-02-28T16:41:16;36.05;;;21.85;;
59294;SDS011;45067;44.654;20.200;2023-02-28T16:43:45;38.95;;;22.30;;
59294;SDS011;45067;44.654;20.200;2023-02-28T16:46:12;38.92;;;23.17;;
59294;SDS011;45067;44.654;20.200;2023-02-28T16:48:38;34.33;;;21.30;;
59294;SDS011;45067;44.654;20.200;2023-02-28T16:51:05;33.13;;;18.50;;
59294;SDS011;45067;44.654;20.200;2023-02-28T16:53:31;41.03;;;24.58;;
59294;SDS011;45067;44.654;20.200;2023-02-28T16:55:57;34.92;;;22.98;;
59294;SDS011;45067;44.654;20.200;2023-02-28T16:58:25;44.60;;;27.35;;
59294;SDS011;45067;44.654;20.200;2023-02-28T17:00:52;40.67;;;25.60;;
59294;SDS011;45067;44.654;20.200;2023-02-28T17:03:25;40.55;;;24.38;;